createdAt,value
2018-08-18T07:49:37.651Z,5.63
2018-08-18T07:52:06.849Z,6.00
2018-08-18T07:54:36.036Z,6.03
2018-08-18T07:57:05.251Z,7.57
2018-08-18T07:59:34.662Z,4.87
2018-08-18T08:02:04.001Z,5.30
2018-08-18T08:04:33.130Z,6.80
2018-08-18T08:07:02.538Z,6.77
2018-08-18T08:09:31.752Z,13.73
2018-08-18T08:12:01.334Z,6.37
2018-08-18T08:14:31.566Z,12.37
2018-08-18T08:17:02.480Z,7.03
2018-08-18T08:19:31.672Z,7.17
2018-08-18T08:22:01.431Z,5.03
2018-08-18T08:24:31.336Z,6.67
2018-08-18T08:27:01.402Z,7.05
2018-08-18T08:29:38.203Z,5.60
2018-08-18T08:32:09.480Z,9.93
2018-08-18T08:34:47.684Z,8.48
2018-08-18T08:37:19.064Z,7.33
2018-08-18T08:39:48.353Z,6.50
2018-08-18T08:42:17.571Z,8.60
2018-08-18T08:44:47.834Z,8.73
2018-08-18T08:47:16.991Z,6.73
2018-08-18T08:49:46.825Z,5.50
2018-08-18T08:52:16.048Z,6.20
2018-08-18T08:54:45.457Z,6.67
2018-08-18T08:57:16.776Z,6.37
2018-08-18T08:59:46.314Z,5.50
2018-08-18T09:02:15.803Z,5.43
2018-08-18T09:04:45.009Z,8.23
2018-08-18T09:07:15.938Z,5.07
2018-08-18T09:09:45.203Z,5.53
2018-08-18T09:12:14.344Z,5.47
2018-08-18T09:14:43.515Z,5.50
2018-08-18T09:17:14.663Z,5.10
2018-08-18T09:19:45.121Z,6.80
2018-08-18T09:24:33.092Z,6.37
2018-08-18T09:27:05.231Z,5.70
2018-08-18T09:29:46.576Z,4.57
2018-08-18T09:32:17.488Z,6.92
2018-08-18T09:34:54.562Z,5.60
2018-08-18T09:37:24.029Z,4.77
2018-08-18T09:39:53.434Z,4.70
2018-08-18T09:42:23.818Z,5.50
2018-08-18T09:44:54.597Z,5.50
2018-08-18T09:47:24.453Z,9.30
2018-08-18T09:49:53.895Z,6.47
2018-08-18T09:52:23.783Z,5.23
2018-08-18T09:54:53.885Z,10.70
2018-08-18T09:57:23.225Z,5.90
2018-08-18T09:59:54.284Z,5.53
2018-08-18T10:02:24.692Z,7.30
2018-08-18T10:04:55.490Z,8.43
2018-08-18T10:07:24.868Z,6.80
2018-08-18T10:09:55.186Z,5.13
2018-08-18T10:12:24.513Z,7.90
2018-08-18T10:14:54.657Z,5.90
2018-08-18T10:17:24.743Z,5.00
2018-08-18T10:19:55.449Z,5.20
2018-08-18T10:22:27.453Z,4.50
2018-08-18T10:24:57.761Z,4.80
2018-08-18T10:27:28.075Z,4.90
2018-08-18T10:29:59.152Z,5.00
2018-08-18T10:32:29.409Z,4.80
2018-08-18T10:35:01.307Z,4.80
2018-08-18T10:37:33.825Z,5.00
2018-08-18T10:40:07.300Z,5.70
2018-08-18T10:42:39.559Z,5.60
2018-08-18T10:45:11.112Z,7.17
2018-08-18T10:47:42.834Z,6.70
2018-08-18T10:51:23.337Z,5.20
2018-08-18T10:53:54.311Z,6.78
2018-08-18T10:56:24.846Z,5.03
2018-08-18T10:59:10.885Z,5.60
2018-08-18T11:02:20.617Z,7.93
2018-08-18T11:04:49.853Z,5.90
2018-08-18T11:07:19.975Z,4.60
2018-08-18T11:09:49.983Z,4.20
2018-08-18T13:00:59.745Z,9.13
2018-08-18T13:03:29.944Z,5.07
2018-08-18T13:06:00.711Z,6.10
2018-08-18T13:08:30.834Z,5.90
2018-08-18T13:11:00.134Z,8.97
2018-08-18T13:13:30.454Z,6.57
2018-08-18T13:16:01.041Z,7.80
2018-08-18T13:18:31.220Z,6.93
2018-08-18T13:21:01.441Z,7.57
2018-08-18T13:23:31.826Z,4.80
2018-08-18T13:26:03.625Z,5.23
2018-08-18T13:28:34.734Z,6.87
2018-08-18T13:31:05.522Z,4.93
2018-08-18T13:33:40.570Z,5.83
2018-08-18T13:36:11.234Z,13.00
2018-08-18T13:38:43.957Z,4.95
2018-08-18T13:41:14.563Z,4.20
2018-08-18T13:43:46.853Z,5.28
2018-08-18T13:46:18.658Z,6.33
2018-08-18T13:48:54.386Z,6.03
2018-08-18T13:51:25.449Z,9.83
2018-08-18T13:53:56.356Z,6.87
2018-08-18T13:56:28.092Z,5.87
2018-08-18T13:58:58.773Z,5.40
2018-08-18T14:01:37.610Z,5.30
2018-08-18T14:04:12.882Z,4.60
2018-08-18T14:06:48.172Z,5.97
2018-08-18T14:09:18.543Z,6.25
2018-08-18T14:11:49.690Z,4.20
2018-08-18T14:14:20.228Z,6.13
2018-08-18T14:16:54.042Z,5.20
2018-08-18T14:19:24.478Z,4.67
2018-08-18T14:21:59.910Z,4.40
2018-08-18T14:24:36.475Z,6.57
2018-08-18T14:27:14.599Z,8.63
2018-08-18T14:29:45.076Z,5.13
2018-08-18T14:32:20.527Z,7.65
2018-08-18T14:35:08.153Z,4.42
2018-08-18T14:37:40.864Z,4.73
2018-08-18T14:40:14.792Z,6.60
2018-08-18T14:42:47.159Z,6.60
2018-08-18T14:45:18.608Z,5.17
2018-08-18T14:47:50.868Z,4.75
2018-08-18T14:50:23.626Z,4.30
2018-08-18T14:52:54.644Z,4.80
2018-08-18T14:55:25.027Z,5.60
2018-08-18T14:58:03.447Z,8.10
2018-08-18T15:00:32.767Z,4.37
2018-08-18T15:03:02.954Z,4.90
2018-08-18T15:05:33.095Z,8.37
2018-08-18T15:08:06.944Z,4.83
2018-08-18T15:10:44.734Z,4.57
2018-08-18T15:13:17.914Z,6.17
2018-08-18T15:15:48.203Z,3.97
2018-08-18T15:18:18.891Z,4.60
2018-08-18T15:20:49.352Z,5.10
2018-08-18T15:23:19.808Z,4.03
2018-08-18T15:25:50.548Z,4.25
2018-08-18T15:28:21.695Z,5.27
2018-08-18T15:30:53.294Z,4.90
2018-08-18T15:33:24.908Z,4.45
2018-08-18T15:35:55.402Z,4.47
2018-08-18T15:38:43.029Z,9.50
2018-08-18T15:41:12.450Z,4.17
2018-08-18T15:43:42.439Z,4.40
2018-08-18T15:46:12.483Z,4.72
2018-08-18T15:48:43.245Z,7.67
2018-08-18T15:51:13.279Z,3.50
2018-08-18T15:53:51.020Z,3.37
2018-08-18T15:56:22.828Z,3.35
2018-08-18T15:58:54.136Z,3.55
2018-08-18T16:01:28.176Z,4.30
2018-08-18T16:04:01.338Z,3.50
2018-08-18T16:06:31.933Z,14.10
2018-08-18T16:09:02.434Z,15.47
2018-08-18T16:11:32.907Z,5.10
2018-08-18T16:14:03.177Z,7.23
2018-08-18T16:16:35.233Z,4.10
2018-08-18T16:19:10.433Z,3.70
2018-08-18T16:21:40.445Z,3.53
2018-08-18T16:24:14.499Z,3.40
2018-08-18T16:26:46.518Z,4.13
2018-08-18T16:29:16.842Z,9.60
2018-08-18T16:31:47.179Z,3.50
2018-08-18T16:34:17.924Z,7.80
2018-08-18T16:36:48.497Z,6.30
2018-08-18T16:39:19.204Z,6.20
2018-08-18T16:41:49.854Z,3.67
2018-08-18T16:44:22.177Z,5.43
2018-08-18T16:46:52.670Z,4.35
2018-08-18T16:49:25.014Z,4.70
2018-08-18T16:51:59.708Z,4.12
2018-08-18T16:54:31.510Z,5.40
2018-08-18T16:57:03.029Z,4.00
2018-08-18T16:59:36.721Z,4.63
2018-08-18T17:02:14.322Z,4.90
2018-08-18T17:04:44.727Z,4.20
2018-08-18T17:07:23.944Z,4.23
2018-08-18T17:09:54.521Z,3.95
2018-08-18T17:12:27.398Z,5.23
2018-08-18T17:14:57.685Z,4.13
2018-08-18T17:17:29.053Z,4.47
2018-08-18T17:19:59.415Z,4.70
2018-08-18T17:22:30.570Z,4.10
2018-08-18T17:25:01.350Z,4.13
2018-08-18T17:27:32.025Z,4.50
2018-08-18T17:30:03.864Z,7.83
2018-08-18T17:32:35.072Z,4.03
2018-08-18T17:35:05.823Z,5.90
2018-08-18T17:37:36.642Z,4.63
2018-08-18T17:40:07.123Z,3.80
2018-08-18T17:42:38.131Z,4.13
2018-08-18T17:45:09.557Z,3.72
2018-08-18T17:47:44.742Z,4.17
2018-08-18T17:50:15.460Z,5.53
2018-08-18T17:52:46.069Z,3.83
2018-08-18T17:55:19.414Z,4.50
2018-08-18T17:57:49.931Z,4.50
2018-08-18T18:00:24.248Z,4.70
2018-08-18T18:03:00.125Z,4.70
2018-08-18T18:05:36.762Z,4.03
2018-08-18T18:08:08.958Z,7.43
2018-08-18T18:10:40.799Z,4.20
2018-08-18T18:13:17.500Z,4.53
2018-08-18T18:15:48.913Z,5.75
2018-08-18T18:18:20.387Z,5.30
2018-08-18T18:20:51.930Z,6.15
2018-08-18T18:23:22.871Z,6.17
2018-08-18T18:25:53.330Z,6.10
2018-08-18T18:28:23.384Z,5.25
2018-08-18T18:30:54.345Z,6.47
2018-08-18T18:33:24.612Z,6.93
2018-08-18T18:35:55.406Z,9.10
2018-08-18T18:38:25.681Z,10.43
2018-08-18T18:40:58.053Z,37.73
2018-08-18T18:43:28.508Z,45.37
2018-08-18T18:45:58.638Z,46.27
2018-08-18T18:48:28.863Z,17.03
2018-08-18T18:51:00.103Z,11.97
2018-08-18T18:53:39.849Z,10.10
2018-08-18T18:56:10.533Z,10.40
2018-08-18T18:58:40.716Z,8.47
2018-08-18T19:01:13.241Z,8.90
2018-08-18T19:03:43.480Z,11.43
2018-08-18T19:06:14.077Z,6.23
2018-08-18T19:08:59.315Z,6.03
2018-08-18T19:11:29.633Z,7.50
2018-08-18T19:14:01.948Z,5.87
2018-08-18T19:16:32.238Z,5.23
2018-08-18T19:19:02.379Z,5.47
2018-08-18T19:21:35.537Z,5.07
2018-08-18T19:24:10.410Z,4.97
2018-08-18T19:26:52.734Z,6.90
2018-08-18T19:29:24.714Z,4.13
2018-08-18T19:31:57.515Z,5.03
2018-08-18T19:34:27.765Z,4.70
2018-08-18T19:37:03.375Z,4.70
2018-08-18T19:39:34.818Z,4.67
2018-08-18T19:42:11.317Z,4.80
2018-08-18T19:44:43.571Z,5.57
2018-08-18T19:47:17.328Z,5.58
2018-08-18T19:49:47.792Z,7.83
2018-08-18T19:52:18.961Z,5.77
2018-08-18T19:54:50.417Z,6.07
2018-08-18T20:10:20.883Z,5.80
2018-08-18T20:12:51.072Z,8.10
2018-08-18T20:15:21.643Z,8.33
2018-08-18T20:17:51.810Z,7.33
2018-08-18T20:20:23.981Z,7.20
2018-08-18T20:22:54.742Z,8.60
2018-08-18T20:25:24.956Z,7.73
2018-08-18T20:27:55.202Z,7.80
2018-08-18T20:30:25.254Z,8.37
2018-08-18T20:32:55.332Z,7.20
2018-08-18T20:35:28.604Z,7.33
2018-08-18T20:37:58.948Z,9.93
2018-08-18T21:38:41.863Z,11.33
2018-08-18T21:41:11.289Z,9.90
2018-08-18T21:43:41.264Z,11.37
2018-08-18T21:46:11.728Z,9.13
2018-08-18T21:48:53.349Z,10.17
2018-08-18T21:51:25.847Z,11.03
2018-08-18T21:53:55.990Z,11.48
2018-08-18T21:56:26.165Z,9.27
2018-08-18T21:58:56.321Z,11.83
2018-08-18T22:01:26.352Z,9.10
2018-08-18T22:03:56.680Z,9.80
2018-08-18T22:06:28.509Z,10.93
2018-08-18T22:09:14.477Z,10.67
2018-08-18T22:11:44.687Z,10.03
2018-08-18T22:14:16.784Z,9.08
2018-08-18T22:16:52.117Z,10.70
2018-08-18T22:19:22.906Z,9.90
2018-08-18T22:21:53.108Z,10.37
2018-08-18T22:24:23.422Z,10.50
2018-08-18T22:26:53.739Z,18.23
2018-08-18T22:29:25.244Z,9.58
2018-08-18T22:31:55.289Z,9.37
2018-08-18T22:34:25.426Z,8.55
2018-08-18T22:37:01.623Z,7.97
2018-08-18T22:39:31.986Z,8.47
2018-08-18T22:42:02.486Z,8.37
2018-08-18T22:44:33.550Z,10.07
2018-08-18T22:47:05.640Z,7.80
2018-08-18T22:49:35.993Z,8.93
2018-08-18T22:52:06.632Z,11.00
2018-08-18T22:54:37.117Z,8.20
2018-08-18T22:57:07.540Z,7.83
2018-08-18T22:59:37.821Z,9.13
2018-08-18T23:02:08.272Z,10.07
2018-08-18T23:04:39.266Z,8.87
2018-08-18T23:07:10.956Z,9.10
2018-08-18T23:09:41.048Z,9.37
2018-08-18T23:12:11.554Z,10.50
2018-08-18T23:14:41.755Z,9.57
2018-08-18T23:17:12.746Z,10.47
2018-08-18T23:19:42.879Z,7.97
2018-08-18T23:22:24.060Z,9.30
2018-08-18T23:24:54.204Z,8.30
2018-08-18T23:27:24.504Z,11.20
2018-08-18T23:29:54.643Z,9.67
2018-08-18T23:32:26.492Z,10.50
2018-08-18T23:34:58.051Z,9.70
2018-08-18T23:37:28.195Z,10.45
2018-08-18T23:39:58.308Z,11.45
2018-08-18T23:42:28.775Z,11.20
2018-08-18T23:44:58.917Z,10.37
2018-08-18T23:47:29.450Z,9.97
2018-08-18T23:49:59.496Z,15.60
2018-08-18T23:52:29.725Z,16.73
2018-08-18T23:54:59.822Z,18.07
2018-08-18T23:57:31.656Z,14.87
